createdAt,value
2019-01-12T00:00:10.150Z,1014.81
2019-01-12T00:01:10.747Z,1014.79
2019-01-12T00:02:11.341Z,1014.84
2019-01-12T00:03:11.938Z,1014.82
2019-01-12T00:04:12.522Z,1014.83
2019-01-12T00:05:13.120Z,1014.78
2019-01-12T00:06:13.719Z,1014.80
2019-01-12T00:07:14.317Z,1014.82
2019-01-12T00:08:14.913Z,1014.81
2019-01-12T00:09:15.506Z,1014.80
2019-01-12T00:10:16.105Z,1014.79
2019-01-12T00:11:16.700Z,1014.79
2019-01-12T00:12:17.294Z,1014.81
2019-01-12T00:13:17.886Z,1014.80
2019-01-12T00:14:18.478Z,1014.78
2019-01-12T00:15:19.064Z,1014.79
2019-01-12T00:16:19.657Z,1014.77
2019-01-12T00:17:20.245Z,1014.79
2019-01-12T00:18:20.842Z,1014.80
2019-01-12T00:19:21.439Z,1014.73
2019-01-12T00:20:22.037Z,1014.75
2019-01-12T00:21:22.653Z,1014.75
2019-01-12T00:22:23.228Z,1014.74
2019-01-12T00:23:23.820Z,1014.74
2019-01-12T00:24:31.343Z,1014.75
2019-01-12T00:25:25.005Z,1014.71
2019-01-12T00:26:25.607Z,1014.77
2019-01-12T00:27:26.229Z,1014.77
2019-01-12T00:28:26.794Z,1014.72
2019-01-12T00:29:27.382Z,1014.70
2019-01-12T00:30:27.968Z,1014.76
2019-01-12T00:31:28.576Z,1014.74
2019-01-12T00:32:29.169Z,1014.75
2019-01-12T00:33:29.752Z,1014.72
2019-01-12T00:34:30.354Z,1014.72
2019-01-12T00:35:30.961Z,1014.72
2019-01-12T00:36:31.551Z,1014.72
2019-01-12T00:37:32.139Z,1014.69
2019-01-12T00:38:32.724Z,1014.67
2019-01-12T00:39:33.313Z,1014.74
2019-01-12T00:40:33.903Z,1014.69
2019-01-12T00:41:34.494Z,1014.67
2019-01-12T00:42:35.085Z,1014.67
2019-01-12T00:43:35.688Z,1014.68
2019-01-12T00:44:36.283Z,1014.66
2019-01-12T00:45:36.877Z,1014.69
2019-01-12T00:46:37.514Z,1014.69
2019-01-12T00:47:38.073Z,1014.62
2019-01-12T00:48:38.675Z,1014.63
2019-01-12T00:49:39.247Z,1014.62
2019-01-12T00:50:39.843Z,1014.64
2019-01-12T00:51:40.438Z,1014.64
2019-01-12T00:52:41.036Z,1014.67
2019-01-12T00:53:41.628Z,1014.63
2019-01-12T00:54:42.225Z,1014.57
2019-01-12T00:55:42.820Z,1014.58
2019-01-12T00:56:43.415Z,1014.61
2019-01-12T00:57:44.010Z,1014.63
2019-01-12T00:58:44.599Z,1014.64
2019-01-12T00:59:45.190Z,1014.58
2019-01-12T01:00:45.778Z,1014.60
2019-01-12T01:01:46.382Z,1014.64
2019-01-12T01:02:46.982Z,1014.54
2019-01-12T01:03:47.581Z,1014.57
2019-01-12T01:04:48.183Z,1014.57
2019-01-12T01:05:48.781Z,1014.56
2019-01-12T01:06:49.382Z,1014.54
2019-01-12T01:07:50.001Z,1014.58
2019-01-12T01:08:50.603Z,1014.57
2019-01-12T01:09:51.203Z,1014.53
2019-01-12T01:10:51.804Z,1014.59
2019-01-12T01:11:52.403Z,1014.54
2019-01-12T01:12:53.026Z,1014.56
2019-01-12T01:13:53.627Z,1014.52
2019-01-12T01:14:54.226Z,1014.56
2019-01-12T01:15:54.826Z,1014.60
2019-01-12T01:16:55.426Z,1014.62
2019-01-12T01:17:56.025Z,1014.58
2019-01-12T01:18:56.627Z,1014.59
2019-01-12T01:19:57.230Z,1014.54
2019-01-12T01:20:57.832Z,1014.53
2019-01-12T01:21:58.429Z,1014.52
2019-01-12T01:22:59.028Z,1014.55
2019-01-12T01:23:59.627Z,1014.54
2019-01-12T01:25:00.241Z,1014.57
2019-01-12T01:26:00.830Z,1014.53
2019-01-12T01:27:01.429Z,1014.55
2019-01-12T01:28:02.027Z,1014.56
2019-01-12T01:29:02.628Z,1014.54
2019-01-12T01:30:03.228Z,1014.59
2019-01-12T01:31:03.849Z,1014.53
2019-01-12T01:32:04.450Z,1014.53
2019-01-12T01:33:05.049Z,1014.59
2019-01-12T01:34:05.649Z,1014.61
2019-01-12T01:35:06.252Z,1014.60
2019-01-12T01:36:06.852Z,1014.60
2019-01-12T01:37:07.451Z,1014.58
2019-01-12T01:38:08.050Z,1014.61
2019-01-12T01:39:08.673Z,1014.63
2019-01-12T01:40:09.292Z,1014.62
2019-01-12T01:41:09.893Z,1014.57
2019-01-12T01:42:10.514Z,1014.59
2019-01-12T01:43:11.114Z,1014.50
2019-01-12T01:44:11.714Z,1014.53
2019-01-12T01:45:12.315Z,1014.52
2019-01-12T01:46:12.914Z,1014.50
2019-01-12T01:47:13.514Z,1014.53
2019-01-12T01:48:14.117Z,1014.56
2019-01-12T01:49:14.713Z,1014.52
2019-01-12T01:50:15.369Z,1014.54
2019-01-12T01:51:15.916Z,1014.57
2019-01-12T01:52:16.515Z,1014.51
2019-01-12T01:53:17.114Z,1014.53
2019-01-12T01:54:17.715Z,1014.54
2019-01-12T01:55:18.317Z,1014.54
2019-01-12T01:56:18.913Z,1014.49
2019-01-12T01:57:19.534Z,1014.52
2019-01-12T01:58:20.133Z,1014.45
2019-01-12T01:59:20.754Z,1014.46
2019-01-12T02:00:21.355Z,1014.48
2019-01-12T02:01:21.955Z,1014.49
2019-01-12T02:02:22.555Z,1014.47
2019-01-12T02:03:23.177Z,1014.47
2019-01-12T02:04:23.776Z,1014.51
2019-01-12T02:05:24.380Z,1014.48
2019-01-12T02:06:24.999Z,1014.47
2019-01-12T02:07:25.601Z,1014.47
2019-01-12T02:08:26.224Z,1014.47
2019-01-12T02:09:26.823Z,1014.42
2019-01-12T02:10:27.424Z,1014.49
2019-01-12T02:11:28.022Z,1014.46
2019-01-12T02:12:28.629Z,1014.47
2019-01-12T02:13:29.256Z,1014.44
2019-01-12T02:14:29.877Z,1014.45
2019-01-12T02:15:30.478Z,1014.42
2019-01-12T02:16:31.077Z,1014.45
2019-01-12T02:17:31.676Z,1014.49
2019-01-12T02:18:32.278Z,1014.46
2019-01-12T02:19:32.901Z,1014.43
2019-01-12T02:20:33.499Z,1014.39
2019-01-12T02:21:34.120Z,1014.40
2019-01-12T02:22:34.719Z,1014.40
2019-01-12T02:23:35.318Z,1014.35
2019-01-12T02:24:35.920Z,1014.39
2019-01-12T02:25:36.521Z,1014.39
2019-01-12T02:26:37.121Z,1014.35
2019-01-12T02:27:37.741Z,1014.34
2019-01-12T02:28:38.340Z,1014.36
2019-01-12T02:29:38.941Z,1014.40
2019-01-12T02:30:39.544Z,1014.35
2019-01-12T02:31:40.145Z,1014.35
2019-01-12T02:32:40.745Z,1014.33
2019-01-12T02:33:41.342Z,1014.31
2019-01-12T02:34:41.944Z,1014.30
2019-01-12T02:35:42.543Z,1014.32
2019-01-12T02:36:43.163Z,1014.33
2019-01-12T02:37:43.785Z,1014.31
2019-01-12T02:38:44.386Z,1014.30
2019-01-12T02:39:44.985Z,1014.31
2019-01-12T02:40:45.584Z,1014.30
2019-01-12T02:41:46.211Z,1014.31
2019-01-12T02:42:46.810Z,1014.28
2019-01-12T02:43:47.409Z,1014.27
2019-01-12T02:44:48.010Z,1014.25
2019-01-12T02:45:48.611Z,1014.32
2019-01-12T02:46:49.214Z,1014.26
2019-01-12T02:47:49.813Z,1014.20
2019-01-12T02:48:50.412Z,1014.24
2019-01-12T02:49:51.035Z,1014.22
2019-01-12T02:50:51.635Z,1014.24
2019-01-12T02:51:52.235Z,1014.20
2019-01-12T02:52:52.834Z,1014.14
2019-01-12T02:53:53.478Z,1014.17
2019-01-12T02:54:54.044Z,1014.17
2019-01-12T02:55:54.658Z,1014.20
2019-01-12T02:56:55.258Z,1014.16
2019-01-12T02:57:55.857Z,1014.13
2019-01-12T02:58:56.456Z,1014.14
2019-01-12T02:59:57.059Z,1014.09
2019-01-12T03:00:57.659Z,1014.13
2019-01-12T03:01:58.262Z,1014.05
2019-01-12T03:02:58.858Z,1014.07
2019-01-12T03:03:59.458Z,1014.10
2019-01-12T03:05:00.222Z,1014.10
2019-01-12T03:06:00.749Z,1014.07
2019-01-12T03:07:01.352Z,1014.09
2019-01-12T03:08:01.973Z,1014.12
2019-01-12T03:09:02.572Z,1014.12
2019-01-12T03:10:03.174Z,1014.12
2019-01-12T03:11:03.774Z,1014.08
2019-01-12T03:12:04.375Z,1014.13
2019-01-12T03:13:04.977Z,1014.09
2019-01-12T03:14:05.594Z,1014.08
2019-01-12T03:15:07.378Z,1014.06
2019-01-12T03:16:06.811Z,1014.05
2019-01-12T03:17:07.413Z,1014.01
2019-01-12T03:18:08.014Z,1014.02
2019-01-12T03:19:08.611Z,1014.01
2019-01-12T03:20:09.212Z,1013.98
2019-01-12T03:21:09.833Z,1013.99
2019-01-12T03:22:10.433Z,1014.01
2019-01-12T03:23:11.034Z,1013.97
2019-01-12T03:24:11.633Z,1013.89
2019-01-12T03:25:17.921Z,1013.87
2019-01-12T03:26:13.849Z,1013.90
2019-01-12T03:27:14.448Z,1013.83
2019-01-12T03:28:15.048Z,1013.85
2019-01-12T03:29:15.647Z,1013.85
2019-01-12T03:30:16.251Z,1013.80
2019-01-12T03:31:16.862Z,1013.83
2019-01-12T03:32:17.459Z,1013.83
2019-01-12T03:33:18.053Z,1013.74
2019-01-12T03:34:18.619Z,1013.75
2019-01-12T03:35:19.218Z,1013.74
2019-01-12T03:36:19.806Z,1013.74
2019-01-12T03:37:20.398Z,1013.73
2019-01-12T03:38:20.985Z,1013.70
2019-01-12T03:39:21.582Z,1013.72
2019-01-12T03:40:22.182Z,1013.70
2019-01-12T03:41:22.777Z,1013.74
2019-01-12T03:42:23.367Z,1013.68
2019-01-12T03:43:23.962Z,1013.65
2019-01-12T03:44:24.550Z,1013.67
2019-01-12T03:45:25.137Z,1013.66
2019-01-12T03:46:25.735Z,1013.62
2019-01-12T03:47:26.329Z,1013.68
2019-01-12T03:48:26.926Z,1013.65
2019-01-12T03:49:27.523Z,1013.58
2019-01-12T03:50:28.114Z,1013.56
2019-01-12T03:51:28.706Z,1013.56
2019-01-12T03:52:29.299Z,1013.57
2019-01-12T03:53:29.906Z,1013.58
2019-01-12T03:54:30.481Z,1013.51
2019-01-12T03:55:31.077Z,1013.55
2019-01-12T03:56:31.665Z,1013.53
2019-01-12T03:57:32.258Z,1013.54
2019-01-12T03:58:32.844Z,1013.53
2019-01-12T03:59:33.442Z,1013.51
2019-01-12T04:00:34.036Z,1013.50
2019-01-12T04:01:34.621Z,1013.52
2019-01-12T04:02:35.217Z,1013.45
2019-01-12T04:03:35.814Z,1013.49
2019-01-12T04:04:37.979Z,1013.49
2019-01-12T04:05:37.000Z,1013.46
2019-01-12T04:06:37.591Z,1013.42
2019-01-12T04:07:38.187Z,1013.45
2019-01-12T04:08:38.775Z,1013.40
2019-01-12T04:09:39.360Z,1013.42
2019-01-12T04:10:39.949Z,1013.40
2019-01-12T04:11:40.549Z,1013.41
2019-01-12T04:12:41.140Z,1013.38
2019-01-12T04:13:41.752Z,1013.36
2019-01-12T04:14:42.326Z,1013.36
2019-01-12T04:16:58.399Z,1013.34
2019-01-12T04:17:58.997Z,1013.33
2019-01-12T04:18:59.587Z,1013.34
2019-01-12T04:20:00.259Z,1013.32
2019-01-12T04:21:00.761Z,1013.26
2019-01-12T04:22:01.360Z,1013.23
2019-01-12T04:23:01.953Z,1013.25
2019-01-12T04:24:02.546Z,1013.24
2019-01-12T04:25:03.144Z,1013.24
2019-01-12T04:26:03.748Z,1013.27
2019-01-12T04:27:04.329Z,1013.23
2019-01-12T04:28:04.921Z,1013.23
2019-01-12T04:29:05.509Z,1013.22
2019-01-12T04:30:06.103Z,1013.26
2019-01-12T04:31:06.698Z,1013.25
2019-01-12T04:32:07.292Z,1013.23
2019-01-12T04:33:07.879Z,1013.22
2019-01-12T04:34:08.469Z,1013.19
2019-01-12T04:35:09.058Z,1013.18
2019-01-12T04:36:09.655Z,1013.15
2019-01-12T04:37:10.251Z,1013.12
2019-01-12T04:38:10.846Z,1013.11
2019-01-12T04:39:11.442Z,1013.12
2019-01-12T04:40:12.038Z,1013.09
2019-01-12T04:41:12.629Z,1013.08
2019-01-12T04:42:13.218Z,1013.09
2019-01-12T04:43:13.803Z,1013.16
2019-01-12T04:44:14.404Z,1013.06
2019-01-12T04:45:14.992Z,1013.09
2019-01-12T04:46:15.586Z,1013.10
2019-01-12T04:47:16.179Z,1013.09
2019-01-12T04:48:16.782Z,1013.07
2019-01-12T04:49:17.370Z,1013.08
2019-01-12T04:50:17.959Z,1013.17
2019-01-12T04:51:18.552Z,1013.12
2019-01-12T04:52:19.140Z,1013.12
2019-01-12T04:53:19.737Z,1013.12
2019-01-12T04:54:20.335Z,1013.12
2019-01-12T04:55:20.929Z,1013.15
2019-01-12T04:56:21.527Z,1013.09
2019-01-12T04:57:22.117Z,1013.15
2019-01-12T04:58:22.714Z,1013.11
2019-01-12T04:59:23.312Z,1013.10
2019-01-12T05:00:23.904Z,1013.07
2019-01-12T05:01:24.504Z,1013.07
2019-01-12T05:02:25.101Z,1013.05
2019-01-12T05:03:25.695Z,1013.09
2019-01-12T05:04:26.291Z,1013.03
2019-01-12T05:05:26.884Z,1012.99
2019-01-12T05:06:27.479Z,1013.04
2019-01-12T05:07:28.065Z,1013.00
2019-01-12T05:08:28.658Z,1013.02
2019-01-12T05:09:29.255Z,1013.06
2019-01-12T05:10:29.841Z,1013.05
2019-01-12T05:11:30.440Z,1013.00
2019-01-12T05:12:31.026Z,1013.02
2019-01-12T05:13:31.624Z,1013.01
2019-01-12T05:14:32.214Z,1013.06
2019-01-12T05:15:32.810Z,1013.00
2019-01-12T05:16:33.405Z,1012.99
2019-01-12T05:17:34.008Z,1012.99
2019-01-12T05:18:34.597Z,1013.00
2019-01-12T05:19:35.194Z,1013.01
2019-01-12T05:20:35.786Z,1012.99
2019-01-12T05:21:36.381Z,1013.02
2019-01-12T05:22:36.969Z,1012.97
2019-01-12T05:23:37.554Z,1013.01
2019-01-12T05:24:38.142Z,1012.99
2019-01-12T05:25:38.727Z,1012.98
2019-01-12T05:26:39.323Z,1013.02
2019-01-12T05:27:39.917Z,1012.98
2019-01-12T05:28:40.515Z,1012.94
2019-01-12T05:29:41.107Z,1012.93
2019-01-12T05:30:41.693Z,1012.96
2019-01-12T05:31:42.282Z,1012.92
2019-01-12T05:32:42.874Z,1012.93
2019-01-12T05:33:43.471Z,1012.94
2019-01-12T05:34:44.075Z,1012.91
2019-01-12T05:35:44.663Z,1012.91
2019-01-12T05:36:45.257Z,1012.85
2019-01-12T05:37:45.853Z,1012.87
2019-01-12T05:38:46.442Z,1012.91
2019-01-12T05:39:47.034Z,1012.91
2019-01-12T05:40:47.623Z,1012.93
2019-01-12T05:41:48.222Z,1012.93
2019-01-12T05:42:48.815Z,1012.95
2019-01-12T05:43:49.413Z,1012.94
2019-01-12T05:44:50.009Z,1012.93
2019-01-12T05:45:50.603Z,1012.92
2019-01-12T05:46:51.196Z,1012.92
2019-01-12T05:47:51.784Z,1012.89
2019-01-12T05:48:52.384Z,1012.93
2019-01-12T05:49:54.243Z,1012.86
2019-01-12T05:50:54.555Z,1012.90
2019-01-12T05:51:55.152Z,1012.83
2019-01-12T05:52:55.734Z,1012.85
2019-01-12T05:53:56.320Z,1012.82
2019-01-12T05:54:56.909Z,1012.79
2019-01-12T05:55:59.225Z,1012.85
2019-01-12T05:56:58.102Z,1012.84
2019-01-12T05:57:58.686Z,1012.83
2019-01-12T05:58:59.271Z,1012.83
2019-01-12T05:59:59.857Z,1012.83
2019-01-12T06:01:00.451Z,1012.80
2019-01-12T06:02:01.046Z,1012.78
2019-01-12T06:03:01.633Z,1012.80
2019-01-12T06:04:02.229Z,1012.77
2019-01-12T06:05:02.830Z,1012.74
2019-01-12T06:06:03.425Z,1012.75
2019-01-12T06:07:04.010Z,1012.77
2019-01-12T06:08:04.606Z,1012.70
2019-01-12T06:09:05.197Z,1012.71
2019-01-12T06:10:05.786Z,1012.76
2019-01-12T06:11:06.380Z,1012.72
2019-01-12T06:12:06.978Z,1012.73
2019-01-12T06:13:07.570Z,1012.74
2019-01-12T06:14:08.167Z,1012.73
2019-01-12T06:15:08.760Z,1012.77
2019-01-12T06:16:09.349Z,1012.71
2019-01-12T06:17:09.946Z,1012.76
2019-01-12T06:18:10.541Z,1012.73
2019-01-12T06:19:11.134Z,1012.71
2019-01-12T06:20:11.734Z,1012.77
2019-01-12T06:21:12.327Z,1012.72
2019-01-12T06:22:12.922Z,1012.74
2019-01-12T06:23:13.525Z,1012.74
2019-01-12T06:24:14.115Z,1012.67
2019-01-12T06:25:14.707Z,1012.68
2019-01-12T06:26:15.299Z,1012.64
2019-01-12T06:27:15.892Z,1012.66
2019-01-12T06:28:16.481Z,1012.65
2019-01-12T06:29:17.083Z,1012.62
2019-01-12T06:30:17.669Z,1012.67
2019-01-12T06:31:18.258Z,1012.60
2019-01-12T06:32:18.854Z,1012.66
2019-01-12T06:33:19.453Z,1012.64
2019-01-12T06:34:20.046Z,1012.70
2019-01-12T06:35:20.654Z,1012.70
2019-01-12T06:36:21.234Z,1012.67
2019-01-12T06:37:21.827Z,1012.61
2019-01-12T06:38:22.747Z,1012.62
2019-01-12T06:39:23.028Z,1012.63
2019-01-12T06:40:23.614Z,1012.63
2019-01-12T06:41:24.213Z,1012.59
2019-01-12T06:42:24.807Z,1012.59
2019-01-12T06:43:25.407Z,1012.52
2019-01-12T06:44:25.997Z,1012.56
2019-01-12T06:45:26.593Z,1012.64
2019-01-12T06:46:27.184Z,1012.56
2019-01-12T06:47:27.778Z,1012.53
2019-01-12T06:48:28.376Z,1012.53
2019-01-12T06:49:28.964Z,1012.52
2019-01-12T06:50:29.558Z,1012.50
2019-01-12T06:51:30.152Z,1012.48
2019-01-12T06:52:30.744Z,1012.51
2019-01-12T06:53:31.334Z,1012.48
2019-01-12T06:54:31.931Z,1012.46
2019-01-12T06:55:32.529Z,1012.41
2019-01-12T06:56:33.143Z,1012.39
2019-01-12T06:57:33.719Z,1012.45
2019-01-12T06:58:34.314Z,1012.41
2019-01-12T06:59:34.908Z,1012.36
2019-01-12T07:00:35.498Z,1012.36
2019-01-12T07:01:36.082Z,1012.38
2019-01-12T07:02:36.678Z,1012.35
2019-01-12T07:03:37.275Z,1012.33
2019-01-12T07:04:37.869Z,1012.27
2019-01-12T07:05:38.463Z,1012.26
2019-01-12T07:06:39.050Z,1012.24
2019-01-12T07:07:39.643Z,1012.30
2019-01-12T07:08:40.233Z,1012.27
2019-01-12T07:09:40.827Z,1012.26
2019-01-12T07:10:41.426Z,1012.31
2019-01-12T07:11:42.020Z,1012.22
2019-01-12T07:12:42.614Z,1012.30
2019-01-12T07:13:43.211Z,1012.17
2019-01-12T07:14:43.799Z,1012.19
2019-01-12T07:15:44.399Z,1012.23
2019-01-12T07:16:44.996Z,1012.19
2019-01-12T07:17:45.590Z,1012.21
2019-01-12T07:18:46.185Z,1012.18
2019-01-12T07:19:46.777Z,1012.23
2019-01-12T07:20:47.364Z,1012.28
2019-01-12T07:21:47.962Z,1012.25
2019-01-12T07:22:48.560Z,1012.29
2019-01-12T07:23:49.154Z,1012.28
2019-01-12T07:24:49.751Z,1012.24
2019-01-12T07:25:50.349Z,1012.26
2019-01-12T07:26:50.945Z,1012.28
2019-01-12T07:27:51.542Z,1012.26
2019-01-12T07:28:52.127Z,1012.25
2019-01-12T07:29:52.721Z,1012.24
2019-01-12T07:30:53.337Z,1012.23
2019-01-12T07:31:53.924Z,1012.17
2019-01-12T07:32:54.513Z,1012.15
2019-01-12T07:33:55.113Z,1012.10
2019-01-12T07:34:55.699Z,1012.08
2019-01-12T07:35:56.287Z,1012.09
2019-01-12T07:36:56.888Z,1012.03
2019-01-12T07:37:57.480Z,1012.03
2019-01-12T07:38:58.078Z,1011.98
2019-01-12T07:39:58.675Z,1012.00
2019-01-12T07:40:59.274Z,1011.92
2019-01-12T07:41:59.869Z,1011.92
2019-01-12T07:43:00.460Z,1011.94
2019-01-12T07:44:01.064Z,1011.90
2019-01-12T07:45:01.649Z,1011.88
2019-01-12T07:46:02.248Z,1011.85
2019-01-12T07:47:02.836Z,1011.86
2019-01-12T07:48:03.431Z,1011.79
2019-01-12T07:49:04.025Z,1011.85
2019-01-12T07:50:04.628Z,1011.81
2019-01-12T07:51:05.224Z,1011.85
2019-01-12T07:52:05.823Z,1011.88
2019-01-12T07:53:06.421Z,1011.85
2019-01-12T07:54:07.019Z,1011.75
2019-01-12T07:55:07.617Z,1011.73
2019-01-12T07:56:08.215Z,1011.67
2019-01-12T07:57:08.820Z,1011.66
2019-01-12T07:58:09.421Z,1011.68
2019-01-12T07:59:10.012Z,1011.73
2019-01-12T08:00:10.603Z,1011.69
2019-01-12T08:01:11.200Z,1011.68
2019-01-12T08:02:11.799Z,1011.59
2019-01-12T08:03:12.397Z,1011.51
2019-01-12T08:04:13.001Z,1011.57
2019-01-12T08:05:13.599Z,1011.47
2019-01-12T08:06:14.196Z,1011.46
2019-01-12T08:07:14.796Z,1011.49
2019-01-12T08:08:15.396Z,1011.50
2019-01-12T08:09:16.002Z,1011.52
2019-01-12T08:10:16.603Z,1011.56
2019-01-12T08:11:17.211Z,1011.54
2019-01-12T08:12:17.794Z,1011.46
2019-01-12T08:13:18.391Z,1011.45
2019-01-12T08:14:18.983Z,1011.48
2019-01-12T08:15:19.585Z,1011.40
2019-01-12T08:16:20.169Z,1011.34
2019-01-12T08:17:20.775Z,1011.26
2019-01-12T08:18:21.388Z,1011.23
2019-01-12T08:19:21.979Z,1011.14
2019-01-12T08:20:22.577Z,1011.18
2019-01-12T08:21:23.185Z,1011.13
2019-01-12T08:22:23.781Z,1011.08
2019-01-12T08:23:24.372Z,1011.05
2019-01-12T08:24:24.965Z,1011.15
2019-01-12T08:25:25.562Z,1011.08
2019-01-12T08:26:31.192Z,1011.08
2019-01-12T08:27:26.742Z,1011.03
2019-01-12T08:28:27.342Z,1011.05
2019-01-12T08:29:27.933Z,1011.07
2019-01-12T08:30:28.534Z,1011.01
2019-01-12T08:31:29.133Z,1011.03
2019-01-12T08:32:29.734Z,1010.97
2019-01-12T08:33:30.332Z,1010.97
2019-01-12T08:34:30.935Z,1010.98
2019-01-12T08:35:31.575Z,1011.02
2019-01-12T08:36:32.168Z,1010.92
2019-01-12T08:37:32.758Z,1010.91
2019-01-12T08:38:33.373Z,1010.94
2019-01-12T08:39:33.959Z,1010.84
2019-01-12T08:40:34.552Z,1010.86
2019-01-12T08:41:35.154Z,1010.87
2019-01-12T08:42:35.748Z,1010.91
2019-01-12T08:43:36.343Z,1010.97
2019-01-12T08:44:36.934Z,1010.96
2019-01-12T08:45:37.535Z,1010.98
2019-01-12T08:46:38.144Z,1010.96
2019-01-12T08:47:38.737Z,1010.99
2019-01-12T08:48:39.329Z,1010.96
2019-01-12T08:49:39.933Z,1010.94
2019-01-12T08:50:40.530Z,1011.00
2019-01-12T08:51:41.132Z,1011.06
2019-01-12T08:52:41.731Z,1011.07
2019-01-12T08:53:42.335Z,1011.15
2019-01-12T08:54:42.934Z,1011.14
2019-01-12T08:55:43.543Z,1011.22
2019-01-12T08:56:44.143Z,1011.27
2019-01-12T08:57:44.742Z,1011.27
2019-01-12T08:58:45.348Z,1011.26
2019-01-12T08:59:45.954Z,1011.27
2019-01-12T09:00:46.559Z,1011.14
2019-01-12T09:01:47.162Z,1011.12
2019-01-12T09:02:47.758Z,1011.08
2019-01-12T09:03:48.350Z,1011.06
2019-01-12T09:04:48.942Z,1011.02
2019-01-12T09:05:49.549Z,1011.03
2019-01-12T09:06:50.156Z,1011.03
2019-01-12T09:07:50.758Z,1010.88
2019-01-12T09:08:51.357Z,1010.96
2019-01-12T09:09:51.951Z,1010.97
2019-01-12T09:10:52.545Z,1010.92
2019-01-12T09:11:53.133Z,1010.90
2019-01-12T09:12:53.735Z,1010.78
2019-01-12T09:13:54.339Z,1010.79
2019-01-12T09:14:54.938Z,1010.83
2019-01-12T09:15:55.533Z,1010.73
2019-01-12T09:16:56.133Z,1010.76
2019-01-12T09:17:56.759Z,1010.73
2019-01-12T09:18:57.358Z,1010.59
2019-01-12T09:19:57.951Z,1010.55
2019-01-12T09:20:58.556Z,1010.57
2019-01-12T09:21:59.167Z,1010.54
2019-01-12T09:22:59.768Z,1010.65
2019-01-12T09:24:00.371Z,1010.58
2019-01-12T09:25:00.971Z,1010.64
2019-01-12T09:26:01.573Z,1010.62
2019-01-12T09:27:02.182Z,1010.54
2019-01-12T09:28:02.780Z,1010.56
2019-01-12T09:29:03.385Z,1010.58
2019-01-12T09:30:03.982Z,1010.61
2019-01-12T09:31:04.575Z,1010.63
2019-01-12T09:32:05.182Z,1010.62
2019-01-12T09:33:05.783Z,1010.54
2019-01-12T09:34:06.386Z,1010.54
2019-01-12T09:35:06.977Z,1010.56
2019-01-12T09:36:07.576Z,1010.50
2019-01-12T09:37:08.182Z,1010.57
2019-01-12T09:38:08.781Z,1010.55
2019-01-12T09:39:09.382Z,1010.50
2019-01-12T09:40:09.986Z,1010.58
2019-01-12T09:41:10.585Z,1010.51
2019-01-12T09:42:11.186Z,1010.52
2019-01-12T09:43:11.791Z,1010.51
2019-01-12T09:44:12.390Z,1010.44
2019-01-12T09:45:12.995Z,1010.52
2019-01-12T09:46:13.596Z,1010.49
2019-01-12T09:47:14.193Z,1010.50
2019-01-12T09:48:14.789Z,1010.51
2019-01-12T09:49:15.391Z,1010.54
2019-01-12T09:50:15.985Z,1010.49
2019-01-12T09:51:16.576Z,1010.47
2019-01-12T09:52:17.183Z,1010.45
2019-01-12T09:53:17.783Z,1010.40
2019-01-12T09:54:18.387Z,1010.30
2019-01-12T09:55:18.992Z,1010.36
2019-01-12T09:56:19.591Z,1010.32
2019-01-12T09:57:20.192Z,1010.27
2019-01-12T09:58:20.791Z,1010.25
2019-01-12T09:59:21.395Z,1010.21
2019-01-12T10:00:21.999Z,1010.24
2019-01-12T10:01:22.590Z,1010.26
2019-01-12T10:02:23.183Z,1010.20
2019-01-12T10:03:23.829Z,1010.12
2019-01-12T10:04:24.383Z,1010.09
2019-01-12T10:05:24.985Z,1010.11
2019-01-12T10:06:25.587Z,1010.11
2019-01-12T10:07:26.179Z,1010.14
2019-01-12T10:08:26.780Z,1010.06
2019-01-12T10:09:27.372Z,1009.98
2019-01-12T10:10:27.980Z,1009.93
2019-01-12T10:11:28.577Z,1010.02
2019-01-12T10:12:29.179Z,1010.02
2019-01-12T10:13:29.783Z,1009.96
2019-01-12T10:14:30.381Z,1009.96
2019-01-12T10:15:30.970Z,1009.92
2019-01-12T10:16:31.571Z,1009.77
2019-01-12T10:17:32.170Z,1009.82
2019-01-12T10:18:32.772Z,1009.85
2019-01-12T10:19:33.366Z,1009.76
2019-01-12T10:20:33.968Z,1009.77
2019-01-12T10:21:34.571Z,1009.81
2019-01-12T10:22:35.177Z,1009.72
2019-01-12T10:23:35.782Z,1009.76
2019-01-12T10:24:36.376Z,1009.71
2019-01-12T10:25:36.964Z,1009.65
2019-01-12T10:26:37.563Z,1009.63
2019-01-12T10:27:38.163Z,1009.63
2019-01-12T10:28:38.761Z,1009.62
2019-01-12T10:29:39.360Z,1009.56
2019-01-12T10:30:39.955Z,1009.62
2019-01-12T10:31:40.556Z,1009.57
2019-01-12T10:32:41.161Z,1009.53
2019-01-12T10:33:41.761Z,1009.61
2019-01-12T10:34:42.356Z,1009.58
2019-01-12T10:35:42.957Z,1009.60
2019-01-12T10:36:43.562Z,1009.55
2019-01-12T10:37:44.162Z,1009.54
2019-01-12T10:38:44.757Z,1009.46
2019-01-12T10:39:45.365Z,1009.58
2019-01-12T10:40:45.977Z,1009.50
2019-01-12T10:41:46.564Z,1009.54
2019-01-12T10:42:47.158Z,1009.53
2019-01-12T10:43:47.755Z,1009.49
2019-01-12T10:44:48.360Z,1009.48
2019-01-12T10:45:48.965Z,1009.54
2019-01-12T10:46:49.576Z,1009.57
2019-01-12T10:47:50.164Z,1009.54
2019-01-12T10:48:50.768Z,1009.53
2019-01-12T10:49:51.365Z,1009.57
2019-01-12T10:50:52.003Z,1009.47
2019-01-12T10:51:52.552Z,1009.44
2019-01-12T10:52:53.172Z,1009.41
2019-01-12T10:53:53.769Z,1009.40
2019-01-12T10:54:54.372Z,1009.39
2019-01-12T10:55:54.972Z,1009.48
2019-01-12T10:56:55.573Z,1009.29
2019-01-12T10:57:56.178Z,1009.36
2019-01-12T10:58:56.784Z,1009.36
2019-01-12T10:59:57.376Z,1009.38
2019-01-12T11:00:57.969Z,1009.34
2019-01-12T11:01:58.570Z,1009.36
2019-01-12T11:02:59.175Z,1009.41
2019-01-12T11:03:59.780Z,1009.33
2019-01-12T11:05:00.369Z,1009.30
2019-01-12T11:06:00.962Z,1009.35
2019-01-12T11:07:01.556Z,1009.37
2019-01-12T11:08:02.158Z,1009.29
2019-01-12T11:09:02.762Z,1009.22
2019-01-12T11:10:04.278Z,1009.26
2019-01-12T11:11:03.965Z,1009.24
2019-01-12T11:12:04.560Z,1009.17
2019-01-12T11:13:05.162Z,1009.26
2019-01-12T11:14:05.755Z,1009.04
2019-01-12T11:15:06.389Z,1009.11
2019-01-12T11:16:06.955Z,1009.03
2019-01-12T11:17:07.553Z,1009.04
2019-01-12T11:18:08.165Z,1008.95
2019-01-12T11:19:08.770Z,1009.15
2019-01-12T11:20:09.375Z,1008.99
2019-01-12T11:21:09.977Z,1008.92
2019-01-12T11:22:10.579Z,1008.94
2019-01-12T11:23:11.183Z,1008.81
2019-01-12T11:24:11.780Z,1008.85
2019-01-12T11:25:12.382Z,1008.80
2019-01-12T11:26:12.978Z,1008.85
2019-01-12T11:27:13.583Z,1008.82
2019-01-12T11:28:14.172Z,1008.78
2019-01-12T11:29:14.799Z,1008.72
2019-01-12T11:30:15.374Z,1008.71
2019-01-12T11:31:19.809Z,1008.65
2019-01-12T11:32:16.573Z,1008.70
2019-01-12T11:33:17.173Z,1008.68
2019-01-12T11:34:17.768Z,1008.67
2019-01-12T11:35:18.389Z,1008.66
2019-01-12T11:36:18.994Z,1008.59
2019-01-12T11:37:19.595Z,1008.64
2019-01-12T11:38:20.188Z,1008.52
2019-01-12T11:39:20.790Z,1008.48
2019-01-12T11:40:21.385Z,1008.46
2019-01-12T11:41:21.987Z,1008.45
2019-01-12T11:42:22.595Z,1008.41
2019-01-12T11:43:23.190Z,1008.44
2019-01-12T11:44:23.782Z,1008.44
2019-01-12T11:45:24.389Z,1008.48
2019-01-12T11:46:24.991Z,1008.47
2019-01-12T11:47:25.590Z,1008.46
2019-01-12T11:48:26.192Z,1008.44
2019-01-12T11:49:26.795Z,1008.24
2019-01-12T11:50:27.399Z,1008.30
2019-01-12T11:51:27.996Z,1008.34
2019-01-12T11:52:28.597Z,1008.21
2019-01-12T11:53:29.196Z,1008.23
2019-01-12T11:54:29.803Z,1008.17
2019-01-12T11:55:30.408Z,1008.14
2019-01-12T11:56:31.013Z,1008.04
2019-01-12T11:57:31.609Z,1008.03
2019-01-12T11:58:32.210Z,1008.03
2019-01-12T11:59:32.813Z,1008.00
2019-01-12T12:00:33.417Z,1007.90
2019-01-12T12:01:34.021Z,1007.87
2019-01-12T12:02:37.888Z,1007.95
2019-01-12T12:03:35.224Z,1007.97
2019-01-12T12:04:35.823Z,1007.89
2019-01-12T12:05:36.422Z,1007.90
2019-01-12T12:06:37.025Z,1007.91
2019-01-12T12:07:37.618Z,1007.88
2019-01-12T12:08:38.213Z,1007.85
2019-01-12T12:09:38.821Z,1007.79
2019-01-12T12:10:39.414Z,1007.71
2019-01-12T12:11:40.006Z,1007.73
2019-01-12T12:12:40.611Z,1007.77
2019-01-12T12:13:41.210Z,1007.81